Time;durP1;ratioP1;P1;durP2;ratioP2;P2;SDS_P1;SDS_P2;PMS_P1;PMS_P2;Temp;Humidity;BMP_temperature;BMP_pressure;BME280_temperature;BME280_humidity;BME280_pressure;Samples;Min_cycle;Max_cycle;Signal;HPM_P1;HPM_P2
2022/04/15 00:01:28;;;;;;;46.83;25.05;;;;;;;8.53;100.00;102546.56;4941924;29;20043;-82
2022/04/15 00:03:56;;;;;;;44.95;25.77;;;;;;;8.53;100.00;102543.91;4931133;29;20082;-82
2022/04/15 00:06:24;;;;;;;45.30;25.42;;;;;;;8.52;100.00;102547.44;4944867;29;20039;-82
2022/04/15 00:08:50;;;;;;;45.13;26.73;;;;;;;8.50;100.00;102541.31;4942551;28;20031;-82
2022/04/15 00:11:15;;;;;;;46.75;25.42;;;;;;;8.49;100.00;102551.88;4941923;29;20059;-82
2022/04/15 00:13:41;;;;;;;43.47;24.33;;;;;;;8.50;100.00;102556.25;4933787;29;20042;-81
2022/04/15 00:16:07;;;;;;;44.83;25.40;;;;;;;8.45;100.00;102545.72;4930566;29;20059;-82
2022/04/15 00:18:34;;;;;;;45.03;25.67;;;;;;;8.43;100.00;102544.00;4944777;28;20035;-82
2022/04/15 00:21:00;;;;;;;44.22;24.30;;;;;;;8.40;100.00;102550.19;4912231;29;20043;-82
2022/04/15 00:23:27;;;;;;;41.83;24.00;;;;;;;8.34;100.00;102551.09;4945292;29;20443;-81
2022/04/15 00:25:54;;;;;;;43.45;24.98;;;;;;;8.31;100.00;102550.22;4947079;29;20126;-81
2022/04/15 00:28:20;;;;;;;46.10;25.58;;;;;;;8.28;100.00;102558.19;4933997;29;20070;-81
2022/04/15 00:30:46;;;;;;;50.53;25.85;;;;;;;8.28;100.00;102547.63;4959111;28;20070;-81
2022/04/15 00:33:12;;;;;;;43.35;25.60;;;;;;;8.28;100.00;102560.81;4942817;28;20027;-83
2022/04/15 00:35:38;;;;;;;44.67;24.33;;;;;;;8.25;100.00;102553.81;4961772;28;20028;-81
2022/04/15 00:38:06;;;;;;;45.40;25.60;;;;;;;8.24;100.00;102562.59;4942068;29;20141;-80
2022/04/15 00:40:32;;;;;;;47.00;25.40;;;;;;;8.23;100.00;102565.25;4944564;28;20090;-82
2022/04/15 00:42:57;;;;;;;43.42;24.90;;;;;;;8.21;100.00;102565.28;4951099;28;20514;-81
2022/04/15 00:45:23;;;;;;;44.97;25.92;;;;;;;8.18;100.00;102560.00;4948070;28;20046;-81
2022/04/15 00:47:54;;;;;;;44.38;27.05;;;;;;;8.14;100.00;102558.28;4951689;28;20028;-81
2022/04/15 00:50:25;;;;;;;45.88;25.95;;;;;;;8.13;100.00;102564.44;4927901;28;20367;-81
2022/04/15 00:52:52;;;;;;;49.53;27.23;;;;;;;8.10;100.00;102565.34;4939697;29;20028;-81
2022/04/15 00:55:20;;;;;;;46.60;26.50;;;;;;;8.11;100.00;102574.16;4926866;29;20507;-82
2022/04/15 00:57:53;;;;;;;47.90;26.98;;;;;;;8.11;100.00;102561.81;4923658;29;20028;-82
2022/04/15 01:00:20;;;;;;;54.30;28.10;;;;;;;8.12;100.00;102567.97;4941149;28;20066;-82
2022/04/15 01:02:46;;;;;;;51.50;27.55;;;;;;;8.11;100.00;102569.72;4926539;29;20458;-82
2022/04/15 01:05:13;;;;;;;49.10;26.42;;;;;;;8.09;100.00;102565.34;4925480;29;20116;-82
2022/04/15 01:07:41;;;;;;;46.53;26.40;;;;;;;8.07;100.00;102565.38;4943071;29;20042;-82
2022/04/15 01:10:11;;;;;;;51.20;27.13;;;;;;;8.04;100.00;102562.72;4931042;29;20062;-83
2022/04/15 01:12:40;;;;;;;47.70;26.05;;;;;;;8.01;100.00;102568.03;4945479;28;20054;-82
2022/04/15 01:15:09;;;;;;;46.30;25.50;;;;;;;8.00;100.00;102567.16;4943770;28;20041;-81
2022/04/15 01:17:35;;;;;;;48.17;26.52;;;;;;;7.98;100.00;102571.56;4941481;28;20420;-82
2022/04/15 01:20:03;;;;;;;43.35;25.35;;;;;;;7.95;100.00;102568.94;4933563;29;20047;-81
2022/04/15 01:22:35;;;;;;;48.22;26.35;;;;;;;7.93;100.00;102565.44;4926671;29;20040;-82
2022/04/15 01:25:01;;;;;;;50.05;27.00;;;;;;;7.92;100.00;102576.88;4916047;29;20095;-82
2022/04/15 01:27:37;;;;;;;47.80;25.75;;;;;;;7.90;100.00;102570.72;4917947;29;20391;-82
2022/04/15 01:30:05;;;;;;;51.72;27.48;;;;;;;7.87;100.00;102576.03;4937047;29;20034;-83
2022/04/15 01:32:31;;;;;;;50.20;26.98;;;;;;;7.82;100.00;102581.31;4911740;28;20109;-81
2022/04/15 01:34:57;;;;;;;48.05;27.10;;;;;;;7.82;100.00;102581.31;4926331;29;20488;-81
2022/04/15 01:37:23;;;;;;;52.05;27.63;;;;;;;7.80;100.00;102577.84;4927364;29;20050;-81
2022/04/15 01:39:50;;;;;;;50.10;27.25;;;;;;;7.79;100.00;102573.44;4941348;28;20031;-81
2022/04/15 01:42:16;;;;;;;51.72;28.40;;;;;;;7.80;100.00;102575.19;4942251;29;20028;-82
2022/04/15 01:44:43;;;;;;;51.03;28.33;;;;;;;7.79;100.00;102577.84;4942070;29;20035;-82
2022/04/15 01:47:10;;;;;;;52.42;28.55;;;;;;;7.74;100.00;102575.22;4945460;28;20035;-82
2022/04/15 01:49:35;;;;;;;57.88;30.27;;;;;;;7.73;100.00;102585.78;4949031;29;20394;-83
2022/04/15 01:52:01;;;;;;;60.28;29.55;;;;;;;7.73;100.00;102585.78;4930887;29;20037;-82
2022/04/15 01:54:29;;;;;;;54.75;28.55;;;;;;;7.82;100.00;102585.72;4952209;28;20055;-81
2022/04/15 01:56:56;;;;;;;57.45;28.67;;;;;;;7.92;100.00;102586.56;4956016;29;20034;-81
2022/04/15 01:59:23;;;;;;;55.65;28.98;;;;;;;8.07;100.00;102594.38;4938164;29;20056;-82
2022/04/15 02:01:49;;;;;;;54.42;28.35;;;;;;;8.11;100.00;102588.19;4935358;29;20036;-82
2022/04/15 02:04:15;;;;;;;59.45;29.50;;;;;;;8.16;100.00;102593.47;4948992;28;20039;-82
2022/04/15 02:06:41;;;;;;;55.47;28.52;;;;;;;8.23;100.00;102602.22;4945688;28;20550;-81
2022/04/15 02:09:06;;;;;;;75.15;28.05;;;;;;;8.27;100.00;102602.16;4940260;29;20118;-82
2022/04/15 02:11:34;;;;;;;51.97;26.50;;;;;;;8.30;100.00;102603.91;4928536;29;20418;-81
2022/04/15 02:13:59;;;;;;;53.17;26.13;;;;;;;8.34;100.00;102608.28;4942240;29;20095;-81
2022/04/15 02:16:26;;;;;;;49.03;24.38;;;;;;;8.33;100.00;102604.75;4910743;29;20114;-81
2022/04/15 02:18:51;;;;;;;75.80;24.73;;;;;;;8.24;100.00;102603.97;4924999;29;20057;-81
2022/04/15 02:21:17;;;;;;;52.15;27.15;;;;;;;8.22;100.00;102601.31;4911932;29;20059;-81
2022/04/15 02:23:42;;;;;;;53.03;27.83;;;;;;;8.26;100.00;102604.81;4936148;29;20037;-82
2022/04/15 02:26:07;;;;;;;52.90;27.77;;;;;;;8.33;100.00;102604.75;4910890;29;20039;-81
2022/04/15 02:28:33;;;;;;;61.40;28.48;;;;;;;8.36;100.00;102602.13;4938960;29;20031;-81
2022/04/15 02:30:58;;;;;;;53.10;28.27;;;;;;;8.41;100.00;102603.84;4943274;29;20083;-81
2022/04/15 02:33:24;;;;;;;59.70;30.27;;;;;;;8.39;100.00;102613.53;4906099;29;20039;-81
2022/04/15 02:35:49;;;;;;;49.65;27.10;;;;;;;8.39;100.00;102603.84;4916764;29;20031;-80
2022/04/15 02:38:16;;;;;;;53.70;26.98;;;;;;;8.37;100.00;102619.69;4923568;29;20095;-81
2022/04/15 02:40:42;;;;;;;59.20;28.80;;;;;;;8.44;100.00;102609.97;4929199;29;20127;-82
2022/04/15 02:43:10;;;;;;;51.78;27.20;;;;;;;8.47;100.00;102609.97;4942227;29;20489;-81
2022/04/15 02:45:36;;;;;;;48.55;26.10;;;;;;;8.45;100.00;102613.47;4919685;29;20069;-81
2022/04/15 02:48:02;;;;;;;49.10;25.48;;;;;;;8.48;100.00;102618.78;4921598;29;20062;-81
2022/04/15 02:50:28;;;;;;;53.25;27.35;;;;;;;8.53;100.00;102619.63;4941869;28;20123;-81
2022/04/15 02:52:53;;;;;;;51.55;27.52;;;;;;;8.56;100.00;102618.72;4926108;29;20126;-81
2022/04/15 02:55:21;;;;;;;51.47;26.65;;;;;;;8.59;100.00;102627.47;4922913;29;20117;-81
2022/04/15 02:57:46;;;;;;;56.45;28.45;;;;;;;8.52;100.00;102628.44;4910733;29;20035;-81
2022/04/15 03:00:14;;;;;;;52.67;27.60;;;;;;;8.46;100.00;102626.69;4923625;29;20046;-81
2022/04/15 03:02:39;;;;;;;55.38;27.38;;;;;;;8.46;100.00;102629.34;4926925;29;20070;-83
2022/04/15 03:05:06;;;;;;;51.97;27.13;;;;;;;8.46;100.00;102636.41;4935934;29;20023;-82
2022/04/15 03:07:32;;;;;;;55.38;27.58;;;;;;;8.56;100.00;102640.72;4903000;29;20096;-82
2022/04/15 03:09:58;;;;;;;51.17;27.85;;;;;;;8.63;100.00;102634.50;4935940;28;20387;-82
2022/04/15 03:12:23;;;;;;;55.47;27.92;;;;;;;8.59;100.00;102643.31;4942629;29;20055;-82
2022/04/15 03:14:53;;;;;;;46.58;24.30;;;;;;;8.60;100.00;102641.56;4925209;29;20067;-82
2022/04/15 03:17:18;;;;;;;38.08;22.33;;;;;;;8.64;100.00;102638.03;4923644;29;20111;-82
2022/04/15 03:19:44;;;;;;;38.28;20.92;;;;;;;8.66;100.00;102633.63;4940002;29;20046;-82
2022/04/15 03:22:09;;;;;;;37.78;21.42;;;;;;;8.68;100.00;102645.91;4931687;29;20039;-81
2022/04/15 03:24:35;;;;;;;35.92;20.88;;;;;;;8.69;100.00;102646.78;4924551;29;20032;-81
2022/04/15 03:27:00;;;;;;;34.38;20.63;;;;;;;8.69;100.00;102645.00;4939279;29;20098;-82
2022/04/15 03:29:25;;;;;;;34.83;19.73;;;;;;;8.73;100.00;102642.34;4911605;29;20027;-82
2022/04/15 03:31:51;;;;;;;31.40;19.77;;;;;;;8.72;100.00;102640.59;4925174;29;20479;-81
2022/04/15 03:34:16;;;;;;;33.63;19.55;;;;;;;8.68;100.00;102652.94;4927665;29;20099;-81
2022/04/15 03:36:42;;;;;;;32.97;19.25;;;;;;;8.67;100.00;102640.63;4913369;29;20068;-81
2022/04/15 03:39:07;;;;;;;30.10;18.08;;;;;;;8.68;100.00;102653.84;4890985;29;20032;-81
2022/04/15 03:41:32;;;;;;;29.67;17.85;;;;;;;8.64;100.00;102653.88;4927331;29;20027;-82
2022/04/15 03:43:59;;;;;;;32.55;19.00;;;;;;;8.66;100.00;102652.09;4895150;29;20031;-81
2022/04/15 03:46:25;;;;;;;29.45;18.17;;;;;;;8.61;100.00;102656.53;4929420;29;20486;-81
2022/04/15 03:48:50;;;;;;;30.63;17.73;;;;;;;8.54;100.00;102660.97;4929435;29;20123;-83
2022/04/15 03:51:15;;;;;;;31.00;18.70;;;;;;;8.52;100.00;102660.13;4925065;29;20031;-81
2022/04/15 03:53:41;;;;;;;32.28;19.33;;;;;;;8.46;100.00;102655.75;4931516;29;20051;-83
2022/04/15 03:56:07;;;;;;;32.20;17.67;;;;;;;8.46;100.00;102654.88;4928173;29;20039;-81
2022/04/15 03:58:36;;;;;;;30.02;17.95;;;;;;;8.43;100.00;102666.31;4911911;29;20043;-81
2022/04/15 04:01:02;;;;;;;34.28;18.83;;;;;;;8.40;100.00;102666.34;4928194;29;20357;-81
2022/04/15 04:03:28;;;;;;;29.90;17.23;;;;;;;8.36;100.00;102659.28;4944652;29;20118;-81
2022/04/15 04:05:53;;;;;;;30.20;17.42;;;;;;;8.35;100.00;102665.44;4946430;29;20035;-82
2022/04/15 04:08:18;;;;;;;29.38;17.45;;;;;;;8.41;100.00;102656.63;4898802;29;20415;-82
2022/04/15 04:10:44;;;;;;;26.40;16.77;;;;;;;8.41;100.00;102665.41;4920906;28;20534;-82
2022/04/15 04:13:10;;;;;;;27.80;16.65;;;;;;;8.35;100.00;102676.00;4967399;28;20038;-82
2022/04/15 04:15:35;;;;;;;27.10;15.68;;;;;;;8.37;100.00;102674.25;4915349;28;20495;-81
2022/04/15 04:18:01;;;;;;;28.65;15.48;;;;;;;8.38;100.00;102673.38;4934487;28;20050;-81
2022/04/15 04:20:27;;;;;;;25.10;15.95;;;;;;;8.32;100.00;102670.75;4962391;28;20475;-82
2022/04/15 04:22:53;;;;;;;26.65;15.57;;;;;;;8.31;100.00;102672.53;4961261;28;20039;-81
2022/04/15 04:25:19;;;;;;;25.48;15.90;;;;;;;8.23;100.00;102674.34;4927006;28;20127;-81
2022/04/15 04:27:45;;;;;;;26.40;15.55;;;;;;;8.26;100.00;102670.78;4962142;28;20034;-83
2022/04/15 04:30:12;;;;;;;28.98;15.73;;;;;;;8.24;100.00;102670.81;4968810;28;20085;-81
2022/04/15 04:32:38;;;;;;;26.08;15.90;;;;;;;8.22;100.00;102679.63;4974418;28;20031;-82
2022/04/15 04:35:06;;;;;;;25.90;15.95;;;;;;;8.23;100.00;102681.38;4927827;28;20633;-83
2022/04/15 04:37:32;;;;;;;27.42;15.40;;;;;;;8.22;100.00;102687.53;4943741;28;20039;-82
2022/04/15 04:39:58;;;;;;;28.45;15.80;;;;;;;8.26;100.00;102676.06;4949779;28;20031;-81
2022/04/15 04:42:24;;;;;;;25.95;15.48;;;;;;;8.26;100.00;102690.16;4967047;28;20034;-82
2022/04/15 04:44:51;;;;;;;27.58;16.25;;;;;;;8.30;100.00;102693.63;4952278;28;20182;-82
2022/04/15 04:47:19;;;;;;;25.52;15.20;;;;;;;8.30;100.00;102691.00;4948332;28;20105;-81
2022/04/15 04:49:45;;;;;;;31.52;16.80;;;;;;;8.31;100.00;102693.66;4964244;28;20027;-83
2022/04/15 04:52:10;;;;;;;27.70;15.50;;;;;;;8.34;100.00;102690.13;4939162;28;20106;-81
2022/04/15 04:54:36;;;;;;;27.65;16.05;;;;;;;8.31;100.00;102690.13;4929502;28;20046;-80
2022/04/15 04:57:01;;;;;;;26.42;14.70;;;;;;;8.26;100.00;102695.44;4947321;28;20053;-80
2022/04/15 04:59:29;;;;;;;30.33;16.52;;;;;;;8.26;100.00;102697.19;4947386;28;20027;-81
2022/04/15 05:01:55;;;;;;;33.08;16.40;;;;;;;8.26;100.00;102705.09;4956482;28;20027;-81
2022/04/15 05:04:21;;;;;;;29.85;16.60;;;;;;;8.26;100.00;102703.38;4928905;28;20380;-81
2022/04/15 05:06:46;;;;;;;30.17;16.85;;;;;;;8.27;100.00;102702.44;4948999;28;20114;-81
2022/04/15 05:09:12;;;;;;;27.05;15.13;;;;;;;8.27;100.00;102701.59;4942854;28;20391;-81
2022/04/15 05:11:37;;;;;;;26.60;15.55;;;;;;;8.31;100.00;102703.31;4955390;28;20082;-82
2022/04/15 05:14:02;;;;;;;28.33;17.98;;;;;;;8.26;100.00;102705.09;4955779;28;20027;-80
2022/04/15 05:16:28;;;;;;;30.25;16.88;;;;;;;8.31;100.00;102719.16;4958685;28;20038;-81
2022/04/15 05:18:53;;;;;;;26.60;16.30;;;;;;;8.34;100.00;102719.16;4959397;28;20094;-81
2022/04/15 05:21:19;;;;;;;33.25;17.63;;;;;;;8.32;100.00;102715.63;4941362;28;20424;-81
2022/04/15 05:23:47;;;;;;;29.58;17.35;;;;;;;8.36;100.00;102728.81;4942036;28;20035;-81
2022/04/15 05:26:13;;;;;;;31.98;18.17;;;;;;;8.43;100.00;102740.22;4953498;28;20126;-81
2022/04/15 05:28:38;;;;;;;31.80;17.88;;;;;;;8.44;100.00;102738.44;4940802;28;20115;-81
2022/04/15 05:31:04;;;;;;;32.92;18.90;;;;;;;8.44;100.00;102741.09;4939848;28;20027;-81
2022/04/15 05:33:30;;;;;;;31.40;18.40;;;;;;;8.46;100.00;102745.50;4941373;28;20049;-82
2022/04/15 05:35:56;;;;;;;33.03;19.05;;;;;;;8.47;100.00;102749.03;4938503;28;20035;-81
2022/04/15 05:38:22;;;;;;;36.20;19.00;;;;;;;8.50;100.00;102744.63;4939103;28;20903;-80
2022/04/15 05:40:47;;;;;;;34.08;18.80;;;;;;;8.50;100.00;102746.38;4954619;29;20122;-81
2022/04/15 05:43:13;;;;;;;31.67;18.85;;;;;;;8.49;100.00;102750.78;4929204;28;20491;-81
2022/04/15 05:45:38;;;;;;;29.50;18.15;;;;;;;8.49;100.00;102752.53;4956914;28;20031;-82
2022/04/15 05:48:04;;;;;;;32.85;19.02;;;;;;;8.42;100.00;102751.66;4942445;28;20261;-82
2022/04/15 05:50:30;;;;;;;30.00;18.35;;;;;;;8.39;100.00;102754.34;4955882;28;20502;-83
2022/04/15 05:52:56;;;;;;;33.00;18.67;;;;;;;8.40;100.00;102753.44;4956671;28;20434;-82
2022/04/15 05:55:21;;;;;;;34.30;18.88;;;;;;;8.43;100.00;102758.69;4908786;29;20047;-80
2022/04/15 05:57:47;;;;;;;40.67;18.58;;;;;;;8.50;100.00;102763.13;4950143;28;20035;-82
2022/04/15 06:00:13;;;;;;;31.88;18.13;;;;;;;8.60;100.00;102755.13;4942546;28;20058;-81
2022/04/15 06:02:57;;;;;;;31.63;17.80;;;;;;;8.72;100.00;102773.56;4953462;28;20467;-81
2022/04/15 06:05:24;;;;;;;33.53;18.48;;;;;;;8.76;100.00;102762.06;4937829;29;20117;-82
2022/04/15 06:07:50;;;;;;;30.20;17.88;;;;;;;8.84;100.00;102762.91;4942529;28;20065;-83
2022/04/15 06:10:16;;;;;;;33.72;18.05;;;;;;;8.90;100.00;102762.00;4934396;28;20150;-82
2022/04/15 06:15:31;;;;;;;32.13;17.10;;;;;;;8.93;100.00;102766.38;4950921;28;20066;-82
2022/04/15 06:17:58;;;;;;;30.05;16.55;;;;;;;8.99;100.00;102771.59;4911048;29;20042;-81
2022/04/15 06:20:23;;;;;;;29.52;16.38;;;;;;;9.01;100.00;102775.13;4958485;28;20042;-81
2022/04/15 06:22:49;;;;;;;30.50;15.50;;;;;;;9.11;100.00;102771.50;4954135;28;20027;-83
2022/04/15 06:25:14;;;;;;;28.15;15.25;;;;;;;9.19;100.00;102779.38;4931963;28;20043;-83
2022/04/15 06:27:40;;;;;;;23.77;14.75;;;;;;;9.12;100.00;102780.34;4956256;28;20035;-82
2022/04/15 06:30:07;;;;;;;25.65;14.07;;;;;;;9.15;100.00;102782.94;4962006;28;20457;-81
2022/04/15 06:32:34;;;;;;;24.98;14.25;;;;;;;9.14;100.00;102787.38;4955984;28;20039;-82
2022/04/15 06:34:59;;;;;;;25.05;14.82;;;;;;;9.24;100.00;102792.56;4932905;29;20031;-83
2022/04/15 06:37:24;;;;;;;21.00;12.95;;;;;;;9.29;100.00;102791.63;4922361;29;20447;-83
2022/04/15 06:39:50;;;;;;;23.48;13.13;;;;;;;9.20;100.00;102794.34;4934705;28;20031;-81
2022/04/15 06:42:28;;;;;;;24.45;12.68;;;;;;;9.17;100.00;102800.53;4941504;28;20093;-82
2022/04/15 06:44:53;;;;;;;25.20;12.73;;;;;;;9.22;100.00;102803.16;4954052;29;20382;-82
2022/04/15 06:47:19;;;;;;;25.45;12.70;;;;;;;9.26;100.00;102801.34;4945649;29;20122;-82
2022/04/15 06:49:46;;;;;;;22.30;13.30;;;;;;;9.18;100.00;102804.06;4935702;28;20033;-82
2022/04/15 06:52:12;;;;;;;18.98;12.95;;;;;;;9.35;100.00;102815.38;4973260;28;20026;-84
2022/04/15 06:54:39;;;;;;;17.85;12.45;;;;;;;9.40;100.00;102807.44;4972868;28;20445;-83
2022/04/15 06:57:04;;;;;;;21.33;13.75;;;;;;;9.38;100.00;102810.97;4972232;28;20030;-83
2022/04/15 06:59:30;;;;;;;18.67;12.27;;;;;;;9.48;100.00;102813.50;4955712;28;20395;-84
2022/04/15 07:01:55;;;;;;;21.75;11.85;;;;;;;9.57;100.00;102807.28;4972973;28;20478;-84
2022/04/15 07:04:22;;;;;;;18.08;11.10;;;;;;;9.62;100.00;102823.13;4937987;28;20039;-84
2022/04/15 07:06:48;;;;;;;16.80;10.73;;;;;;;9.77;100.00;102819.44;4956149;28;20036;-85
2022/04/15 07:09:13;;;;;;;15.43;9.85;;;;;;;9.80;99.84;102822.06;4939020;28;20049;-85
2022/04/15 07:11:39;;;;;;;17.35;10.05;;;;;;;9.96;99.85;102821.00;4949816;29;20050;-85
2022/04/15 07:14:05;;;;;;;13.00;8.52;;;;;;;9.91;97.73;102822.84;4934456;29;20027;-85
2022/04/15 07:16:34;;;;;;;15.48;8.95;;;;;;;10.00;96.80;102822.72;4934868;29;20119;-85
2022/04/15 07:19:04;;;;;;;15.52;8.85;;;;;;;10.00;97.26;102825.38;4934570;29;20063;-85
2022/04/15 07:21:36;;;;;;;16.83;8.43;;;;;;;10.00;96.39;102829.81;4938833;28;20121;-85
2022/04/15 07:24:03;;;;;;;15.50;8.25;;;;;;;9.81;96.41;102834.41;4955207;28;20590;-85
2022/04/15 07:26:28;;;;;;;11.82;8.02;;;;;;;9.83;97.60;102840.53;4950920;29;20054;-85
2022/04/15 07:28:54;;;;;;;12.00;7.57;;;;;;;9.97;97.16;102851.00;4953207;28;20035;-84
2022/04/15 07:31:19;;;;;;;11.85;7.22;;;;;;;9.99;95.84;102843.94;4953848;29;20027;-84
2022/04/15 07:33:48;;;;;;;13.88;7.30;;;;;;;10.01;96.10;102844.78;4954748;29;20467;-85
2022/04/15 07:36:43;;;;;;;10.25;6.38;;;;;;;10.33;94.71;102848.84;4954690;29;20414;-84
2022/04/15 07:39:11;;;;;;;9.55;6.28;;;;;;;10.30;93.94;102846.22;4941775;29;20031;-84
2022/04/15 07:41:38;;;;;;;9.82;6.35;;;;;;;10.52;94.08;102833.63;4954408;28;20522;-84
2022/04/15 07:44:09;;;;;;;10.30;6.40;;;;;;;10.59;91.58;102827.38;4964160;28;20037;-84
2022/04/15 07:46:36;;;;;;;10.15;6.30;;;;;;;10.76;90.92;102835.09;4953156;28;20040;-84
2022/04/15 07:49:02;;;;;;;10.10;5.80;;;;;;;10.75;89.45;102832.47;4964439;28;20042;-84
2022/04/15 07:54:49;;;;;;;7.45;4.65;;;;;;;11.20;89.74;102832.72;5000323;23;20061;-68
2022/04/15 07:57:17;;;;;;;11.10;5.00;;;;;;;11.34;85.72;102831.59;4978262;28;20825;-67
2022/04/15 07:59:43;;;;;;;7.82;4.40;;;;;;;11.51;83.91;102845.47;4983525;28;20542;-67
2022/04/15 08:02:09;;;;;;;7.20;4.43;;;;;;;11.30;84.87;102842.28;4991596;28;20030;-68
2022/04/15 08:04:41;;;;;;;7.82;4.70;;;;;;;11.38;83.70;102838.59;4997664;28;20027;-67
2022/04/15 08:07:06;;;;;;;9.32;5.10;;;;;;;11.20;84.96;102837.13;4988455;28;20396;-67
2022/04/15 08:09:32;;;;;;;8.52;4.95;;;;;;;11.01;85.27;102848.03;4984837;28;20473;-68
2022/04/15 08:11:58;;;;;;;8.80;4.53;;;;;;;11.19;85.31;102848.63;4980859;28;20393;-66
2022/04/15 08:14:23;;;;;;;6.57;4.70;;;;;;;11.18;83.81;102850.41;5009864;28;20034;-67
2022/04/15 08:16:48;;;;;;;7.95;4.20;;;;;;;11.08;83.46;102847.00;4986236;28;20037;-68
2022/04/15 08:19:14;;;;;;;5.28;4.35;;;;;;;11.03;84.76;102848.84;4984189;28;20493;-67
2022/04/15 08:21:39;;;;;;;8.70;4.55;;;;;;;11.14;85.24;102849.56;4973305;28;20034;-67
2022/04/15 08:24:05;;;;;;;8.60;4.70;;;;;;;11.12;85.84;102853.16;5004609;28;20025;-67
2022/04/15 08:26:30;;;;;;;8.05;4.68;;;;;;;11.24;85.57;102860.94;4985374;28;20030;-67
2022/04/15 08:28:56;;;;;;;7.70;4.40;;;;;;;11.53;86.25;102856.91;4977775;28;20400;-67
2022/04/15 08:31:21;;;;;;;8.13;4.32;;;;;;;11.88;83.46;102863.41;4994997;28;20054;-67
2022/04/15 08:33:47;;;;;;;6.63;4.38;;;;;;;12.23;81.83;102861.03;4960538;28;20097;-67
2022/04/15 08:36:12;;;;;;;7.85;3.92;;;;;;;12.48;80.02;102856.13;4954771;28;20069;-67
2022/04/15 08:38:38;;;;;;;5.80;3.80;;;;;;;12.37;79.48;102847.50;4989276;28;20029;-68
2022/04/15 08:41:05;;;;;;;8.88;4.60;;;;;;;12.29;80.35;102851.16;4972586;28;20033;-68
2022/04/15 08:43:30;;;;;;;5.90;4.00;;;;;;;12.64;80.39;102861.97;4974840;28;20038;-68
2022/04/15 08:45:56;;;;;;;9.35;4.28;;;;;;;12.91;78.11;102863.16;4964517;28;20037;-67
2022/04/15 08:48:24;;;;;;;8.63;4.30;;;;;;;13.02;76.88;102862.94;4957807;28;20112;-67
2022/04/15 08:50:50;;;;;;;8.50;4.10;;;;;;;13.14;75.97;102874.19;4976059;28;20022;-67
2022/04/15 08:53:17;;;;;;;7.60;4.40;;;;;;;12.70;76.00;102875.16;4977248;28;20545;-67
2022/04/15 08:55:42;;;;;;;9.00;4.32;;;;;;;12.75;76.99;102867.09;4973324;28;20077;-67
2022/04/15 08:58:07;;;;;;;8.18;3.90;;;;;;;12.83;77.20;102869.56;4991203;28;20030;-67
2022/04/15 09:00:33;;;;;;;5.63;4.03;;;;;;;12.92;75.67;102874.69;4971989;28;20133;-67
2022/04/15 09:02:58;;;;;;;7.03;3.90;;;;;;;13.20;75.54;102882.91;4982789;28;20087;-67
2022/04/15 09:05:26;;;;;;;7.53;3.80;;;;;;;13.41;73.71;102878.91;4993295;28;20094;-67
2022/04/15 09:08:06;;;;;;;6.38;4.20;;;;;;;13.43;74.39;102886.84;4990682;28;20025;-68
2022/04/15 09:10:35;;;;;;;8.15;3.85;;;;;;;13.41;72.03;102888.66;4995269;28;20109;-68
2022/04/15 09:13:03;;;;;;;7.03;3.70;;;;;;;13.11;75.35;102894.63;4983262;28;20084;-67
2022/04/15 09:15:29;;;;;;;8.52;3.72;;;;;;;13.11;75.50;102880.47;5014080;28;20026;-68
2022/04/15 09:17:55;;;;;;;6.80;3.90;;;;;;;13.65;73.92;102889.00;4970564;28;20426;-67
2022/04/15 09:20:22;;;;;;;6.60;4.35;;;;;;;14.23;71.28;102895.47;4986237;28;20402;-67
2022/04/15 09:22:52;;;;;;;7.00;3.70;;;;;;;14.79;69.52;102890.38;4956425;28;20042;-67
2022/04/15 09:25:24;;;;;;;9.55;3.97;;;;;;;15.31;67.15;102893.22;4982319;28;20371;-67
2022/04/15 09:27:53;;;;;;;5.35;3.70;;;;;;;16.05;63.33;102890.78;4987111;28;20030;-67
2022/04/15 09:30:30;;;;;;;5.40;3.35;;;;;;;16.94;61.11;102883.06;4967723;28;20115;-67
2022/04/15 09:32:59;;;;;;;5.63;3.20;;;;;;;17.98;56.32;102891.31;4996590;28;20064;-67
2022/04/15 09:35:25;;;;;;;5.10;3.25;;;;;;;18.84;54.84;102885.66;4973417;28;20022;-67
2022/04/15 09:37:51;;;;;;;10.07;3.90;;;;;;;19.77;51.01;102890.09;4976334;28;20034;-67
2022/04/15 09:40:20;;;;;;;5.63;3.58;;;;;;;19.79;47.62;102890.00;4992909;28;20029;-67
2022/04/15 09:42:51;;;;;;;9.50;3.47;;;;;;;20.01;46.76;102900.53;4991342;28;20089;-67
2022/04/15 09:45:29;;;;;;;5.07;3.40;;;;;;;19.90;45.58;102900.25;4983836;28;20076;-68
2022/04/15 09:47:56;;;;;;;4.72;3.20;;;;;;;19.20;47.79;102900.97;4990225;28;20045;-67
2022/04/15 09:50:26;;;;;;;5.93;3.30;;;;;;;18.92;47.75;102896.06;4992006;28;20509;-67
2022/04/15 09:52:53;;;;;;;7.40;3.50;;;;;;;18.31;50.92;102901.50;4975792;28;20022;-67
2022/04/15 09:55:20;;;;;;;6.30;3.45;;;;;;;18.24;50.16;102908.06;4988069;28;20050;-68
2022/04/15 09:57:47;;;;;;;8.40;4.18;;;;;;;18.11;50.73;102897.00;4969203;28;20121;-67
2022/04/15 10:00:14;;;;;;;9.32;3.80;;;;;;;17.16;52.19;102901.81;4976095;28;20110;-67
2022/04/15 10:02:42;;;;;;;7.68;3.75;;;;;;;17.51;52.24;102903.06;4973321;28;20408;-68
2022/04/15 10:05:08;;;;;;;7.35;4.15;;;;;;;17.32;51.78;102902.94;4992690;28;20080;-67
2022/04/15 10:07:34;;;;;;;6.57;3.10;;;;;;;17.16;53.41;102902.72;4975917;28;20030;-66
2022/04/15 10:10:01;;;;;;;5.43;2.90;;;;;;;17.75;52.18;102892.28;4975771;28;20033;-68
2022/04/15 10:12:28;;;;;;;6.63;3.15;;;;;;;17.94;51.04;102896.88;4993624;28;20022;-66
2022/04/15 10:14:54;;;;;;;7.10;3.70;;;;;;;17.49;51.84;102899.59;4988559;28;20038;-68
2022/04/15 10:17:22;;;;;;;8.43;3.60;;;;;;;16.87;53.80;102891.31;4984395;28;20104;-67
2022/04/15 10:19:48;;;;;;;5.88;3.40;;;;;;;17.68;52.22;102898.81;4974194;28;20039;-67
2022/04/15 10:22:15;;;;;;;7.18;3.17;;;;;;;18.29;52.01;102899.81;4956369;28;20121;-66
2022/04/15 10:24:40;;;;;;;8.55;3.00;;;;;;;18.05;50.65;102908.00;4956423;28;20066;-66
2022/04/15 10:27:06;;;;;;;7.03;3.28;;;;;;;18.09;49.09;102906.06;4999526;28;20109;-67
2022/04/15 10:29:31;;;;;;;7.57;3.30;;;;;;;18.83;49.39;102908.06;4973538;28;20033;-67
2022/04/15 10:32:11;;;;;;;9.40;3.70;;;;;;;19.64;47.59;102905.09;4940195;28;20027;-67
2022/04/15 10:34:48;;;;;;;7.40;3.17;;;;;;;20.08;46.09;102904.66;4972115;28;20023;-67
2022/04/15 10:37:14;;;;;;;4.78;2.88;;;;;;;20.62;42.43;102904.44;4971645;28;20042;-67
2022/04/15 10:39:48;;;;;;;4.53;3.10;;;;;;;20.65;42.37;102902.56;5000516;28;20030;-68
2022/04/15 10:42:18;;;;;;;5.90;3.20;;;;;;;20.96;41.52;102896.38;4992227;28;20076;-68
2022/04/15 10:44:44;;;;;;;6.45;3.75;;;;;;;21.60;40.55;102907.13;4975255;28;20030;-67
2022/04/15 10:47:24;;;;;;;5.35;3.03;;;;;;;21.61;39.33;102895.34;4975700;28;20057;-66
2022/04/15 10:49:55;;;;;;;5.10;3.00;;;;;;;20.66;41.53;102893.53;4992229;28;20080;-66
2022/04/15 10:52:24;;;;;;;5.20;3.65;;;;;;;20.92;40.58;102889.41;4992668;28;20099;-67
2022/04/15 10:54:59;;;;;;;5.82;3.30;;;;;;;20.97;39.43;102887.31;4992488;28;20133;-66
2022/04/15 10:57:33;;;;;;;3.90;2.60;;;;;;;20.93;40.23;102891.16;4992565;28;20022;-66
2022/04/15 11:02:50;;;;;;;6.15;2.80;;;;;;;20.54;41.23;102895.09;4978252;28;20088;-66
2022/04/15 11:05:40;;;;;;;5.05;2.83;;;;;;;20.38;41.44;102905.78;5001075;28;20033;-66
2022/04/15 11:08:10;;;;;;;4.53;3.20;;;;;;;19.23;45.09;102894.59;4983419;28;20034;-66
2022/04/15 11:10:48;;;;;;;4.82;2.83;;;;;;;19.83;43.28;102896.97;4996729;28;20049;-66
2022/04/15 11:13:28;;;;;;;7.60;3.22;;;;;;;20.05;42.62;102895.88;5003820;28;20018;-66
2022/04/15 11:15:57;;;;;;;4.63;2.97;;;;;;;20.04;42.35;102895.00;4990907;28;20068;-66
2022/04/15 11:18:23;;;;;;;5.47;3.00;;;;;;;20.24;42.47;102887.69;4975027;28;20445;-67
2022/04/15 11:20:48;;;;;;;4.40;2.95;;;;;;;20.64;41.52;102882.84;4991943;28;20090;-67
2022/04/15 11:23:15;;;;;;;4.82;2.70;;;;;;;20.75;40.51;102877.75;4975091;28;20034;-67